sensor_id;sensor_type;location;lat;lon;timestamp;temperature;humidity
51615;DHT22;37695;52.960;6.188;2023-08-01T00:02:05;17.20;99.90
51615;DHT22;37695;52.960;6.188;2023-08-01T00:04:31;17.10;99.90
51615;DHT22;37695;52.960;6.188;2023-08-01T00:06:56;17.10;99.90
51615;DHT22;37695;52.960;6.188;2023-08-01T00:09:22;17.10;99.90
51615;DHT22;37695;52.960;6.188;2023-08-01T00:11:47;17.10;99.90
51615;DHT22;37695;52.960;6.188;2023-08-01T00:14:13;17.10;99.90
51615;DHT22;37695;52.960;6.188;2023-08-01T00:16:38;17.10;99.90
51615;DHT22;37695;52.960;6.188;2023-08-01T00:19:04;17.00;99.90
51615;DHT22;37695;52.960;6.188;2023-08-01T00:21:29;17.00;99.90
51615;DHT22;37695;52.960;6.188;2023-08-01T00:23:57;17.00;99.90
51615;DHT22;37695;52.960;6.188;2023-08-01T00:26:22;17.00;99.90
51615;DHT22;37695;52.960;6.188;2023-08-01T00:28:48;16.90;99.90
51615;DHT22;37695;52.960;6.188;2023-08-01T00:31:14;16.90;99.90
51615;DHT22;37695;52.960;6.188;2023-08-01T00:33:39;16.90;99.90
51615;DHT22;37695;52.960;6.188;2023-08-01T00:36:05;16.80;99.90
51615;DHT22;37695;52.960;6.188;2023-08-01T00:38:36;16.80;99.90
51615;DHT22;37695;52.960;6.188;2023-08-01T00:41:02;16.80;99.90
51615;DHT22;37695;52.960;6.188;2023-08-01T00:43:28;16.80;99.90
51615;DHT22;37695;52.960;6.188;2023-08-01T00:45:57;16.80;99.90
51615;DHT22;37695;52.960;6.188;2023-08-01T00:48:24;16.80;99.90
51615;DHT22;37695;52.960;6.188;2023-08-01T00:50:50;16.80;99.90
51615;DHT22;37695;52.960;6.188;2023-08-01T00:53:17;16.80;99.90
51615;DHT22;37695;52.960;6.188;2023-08-01T00:55:43;16.80;99.90
51615;DHT22;37695;52.960;6.188;2023-08-01T00:58:09;16.80;99.90
51615;DHT22;37695;52.960;6.188;2023-08-01T01:00:34;16.80;99.90
51615;DHT22;37695;52.960;6.188;2023-08-01T01:03:00;16.80;99.90
51615;DHT22;37695;52.960;6.188;2023-08-01T01:05:27;16.80;99.90
51615;DHT22;37695;52.960;6.188;2023-08-01T01:07:57;16.80;99.90
51615;DHT22;37695;52.960;6.188;2023-08-01T01:10:23;16.80;99.90
51615;DHT22;37695;52.960;6.188;2023-08-01T01:12:48;16.80;99.90
51615;DHT22;37695;52.960;6.188;2023-08-01T01:15:15;16.80;99.90
51615;DHT22;37695;52.960;6.188;2023-08-01T01:17:41;16.70;99.90
51615;DHT22;37695;52.960;6.188;2023-08-01T01:20:07;16.70;99.90
51615;DHT22;37695;52.960;6.188;2023-08-01T01:22:32;16.70;99.90
51615;DHT22;37695;52.960;6.188;2023-08-01T01:24:59;16.70;99.90
51615;DHT22;37695;52.960;6.188;2023-08-01T01:27:26;16.70;99.90
51615;DHT22;37695;52.960;6.188;2023-08-01T01:29:53;16.70;99.90
51615;DHT22;37695;52.960;6.188;2023-08-01T01:32:20;16.70;99.90
51615;DHT22;37695;52.960;6.188;2023-08-01T01:34:47;16.60;99.90
51615;DHT22;37695;52.960;6.188;2023-08-01T01:37:12;16.60;99.90
51615;DHT22;37695;52.960;6.188;2023-08-01T01:39:38;16.60;99.90
51615;DHT22;37695;52.960;6.188;2023-08-01T01:42:04;16.60;99.90
51615;DHT22;37695;52.960;6.188;2023-08-01T01:44:29;16.50;99.90
51615;DHT22;37695;52.960;6.188;2023-08-01T01:46:55;16.40;99.90
51615;DHT22;37695;52.960;6.188;2023-08-01T01:49:20;16.40;99.90
51615;DHT22;37695;52.960;6.188;2023-08-01T01:51:46;16.40;99.90
51615;DHT22;37695;52.960;6.188;2023-08-01T01:54:11;16.30;99.90
51615;DHT22;37695;52.960;6.188;2023-08-01T01:56:37;16.30;99.90
51615;DHT22;37695;52.960;6.188;2023-08-01T01:59:02;16.30;99.90
51615;DHT22;37695;52.960;6.188;2023-08-01T02:01:28;16.30;99.90
51615;DHT22;37695;52.960;6.188;2023-08-01T02:03:53;16.20;99.90
51615;DHT22;37695;52.960;6.188;2023-08-01T02:06:19;16.20;99.90
51615;DHT22;37695;52.960;6.188;2023-08-01T02:08:45;16.20;99.90
51615;DHT22;37695;52.960;6.188;2023-08-01T02:11:10;16.10;99.90
51615;DHT22;37695;52.960;6.188;2023-08-01T02:13:36;16.10;99.90
51615;DHT22;37695;52.960;6.188;2023-08-01T02:16:01;16.10;99.90
51615;DHT22;37695;52.960;6.188;2023-08-01T02:18:27;16.20;99.90
51615;DHT22;37695;52.960;6.188;2023-08-01T02:20:52;16.30;99.90
51615;DHT22;37695;52.960;6.188;2023-08-01T02:23:18;16.30;99.90
51615;DHT22;37695;52.960;6.188;2023-08-01T02:25:43;16.30;99.90
51615;DHT22;37695;52.960;6.188;2023-08-01T02:28:09;16.30;99.90
51615;DHT22;37695;52.960;6.188;2023-08-01T02:30:35;16.30;99.90
51615;DHT22;37695;52.960;6.188;2023-08-01T02:33:01;16.30;99.90
51615;DHT22;37695;52.960;6.188;2023-08-01T02:35:27;16.20;99.90
51615;DHT22;37695;52.960;6.188;2023-08-01T02:37:53;16.30;99.90
51615;DHT22;37695;52.960;6.188;2023-08-01T02:40:19;16.30;99.90
51615;DHT22;37695;52.960;6.188;2023-08-01T02:42:45;16.30;99.90
51615;DHT22;37695;52.960;6.188;2023-08-01T02:45:10;16.30;99.90
51615;DHT22;37695;52.960;6.188;2023-08-01T02:47:36;16.30;99.90
51615;DHT22;37695;52.960;6.188;2023-08-01T02:50:01;16.20;99.90
51615;DHT22;37695;52.960;6.188;2023-08-01T02:52:27;16.20;99.90
51615;DHT22;37695;52.960;6.188;2023-08-01T02:54:53;16.20;99.90
51615;DHT22;37695;52.960;6.188;2023-08-01T02:57:18;16.10;99.90
51615;DHT22;37695;52.960;6.188;2023-08-01T02:59:44;16.00;99.90
51615;DHT22;37695;52.960;6.188;2023-08-01T03:02:09;15.90;99.90
51615;DHT22;37695;52.960;6.188;2023-08-01T03:04:35;15.90;99.90
51615;DHT22;37695;52.960;6.188;2023-08-01T03:07:01;15.80;99.90
51615;DHT22;37695;52.960;6.188;2023-08-01T03:09:26;15.80;99.90
51615;DHT22;37695;52.960;6.188;2023-08-01T03:11:52;15.70;99.90
51615;DHT22;37695;52.960;6.188;2023-08-01T03:14:17;15.70;99.90
51615;DHT22;37695;52.960;6.188;2023-08-01T03:16:43;15.60;99.90
51615;DHT22;37695;52.960;6.188;2023-08-01T03:19:09;15.60;99.90
51615;DHT22;37695;52.960;6.188;2023-08-01T03:21:35;15.50;99.90
51615;DHT22;37695;52.960;6.188;2023-08-01T03:24:02;15.50;99.90
51615;DHT22;37695;52.960;6.188;2023-08-01T03:26:28;15.50;99.90
51615;DHT22;37695;52.960;6.188;2023-08-01T03:28:54;15.40;99.90
51615;DHT22;37695;52.960;6.188;2023-08-01T03:31:21;15.40;99.90
51615;DHT22;37695;52.960;6.188;2023-08-01T03:33:47;15.30;99.90
51615;DHT22;37695;52.960;6.188;2023-08-01T03:36:12;15.40;99.90
51615;DHT22;37695;52.960;6.188;2023-08-01T03:38:39;15.40;99.90
51615;DHT22;37695;52.960;6.188;2023-08-01T03:41:04;15.30;99.90
51615;DHT22;37695;52.960;6.188;2023-08-01T03:43:30;15.30;99.90
51615;DHT22;37695;52.960;6.188;2023-08-01T03:45:56;15.30;99.90
51615;DHT22;37695;52.960;6.188;2023-08-01T03:48:21;15.30;99.90
51615;DHT22;37695;52.960;6.188;2023-08-01T03:50:47;15.30;99.90
51615;DHT22;37695;52.960;6.188;2023-08-01T03:53:13;15.40;99.90
51615;DHT22;37695;52.960;6.188;2023-08-01T03:55:38;15.40;99.90
51615;DHT22;37695;52.960;6.188;2023-08-01T03:58:04;15.40;99.90
51615;DHT22;37695;52.960;6.188;2023-08-01T04:00:30;15.40;99.90
51615;DHT22;37695;52.960;6.188;2023-08-01T04:02:58;15.40;99.90
51615;DHT22;37695;52.960;6.188;2023-08-01T04:05:24;15.40;99.90
51615;DHT22;37695;52.960;6.188;2023-08-01T04:07:50;15.50;99.90
51615;DHT22;37695;52.960;6.188;2023-08-01T04:10:15;15.40;99.90
51615;DHT22;37695;52.960;6.188;2023-08-01T04:12:41;15.50;99.90
51615;DHT22;37695;52.960;6.188;2023-08-01T04:15:08;15.50;99.90
51615;DHT22;37695;52.960;6.188;2023-08-01T04:17:34;15.40;99.90
51615;DHT22;37695;52.960;6.188;2023-08-01T04:19:59;15.40;99.90
51615;DHT22;37695;52.960;6.188;2023-08-01T04:22:25;15.40;99.90
51615;DHT22;37695;52.960;6.188;2023-08-01T04:24:50;15.40;99.90
51615;DHT22;37695;52.960;6.188;2023-08-01T04:27:16;15.40;99.90
51615;DHT22;37695;52.960;6.188;2023-08-01T04:29:42;15.40;99.90
51615;DHT22;37695;52.960;6.188;2023-08-01T04:32:07;15.40;99.90
51615;DHT22;37695;52.960;6.188;2023-08-01T04:34:33;15.40;99.90
51615;DHT22;37695;52.960;6.188;2023-08-01T04:36:58;15.40;99.90
51615;DHT22;37695;52.960;6.188;2023-08-01T04:39:24;15.40;99.90
51615;DHT22;37695;52.960;6.188;2023-08-01T04:41:50;15.40;99.90
51615;DHT22;37695;52.960;6.188;2023-08-01T04:44:15;15.50;99.90
51615;DHT22;37695;52.960;6.188;2023-08-01T04:46:41;15.50;99.90
51615;DHT22;37695;52.960;6.188;2023-08-01T04:49:07;15.60;99.90
51615;DHT22;37695;52.960;6.188;2023-08-01T04:51:33;15.60;99.90
51615;DHT22;37695;52.960;6.188;2023-08-01T04:53:58;15.70;99.90
51615;DHT22;37695;52.960;6.188;2023-08-01T04:56:24;15.80;99.90
51615;DHT22;37695;52.960;6.188;2023-08-01T04:58:49;15.80;99.90
51615;DHT22;37695;52.960;6.188;2023-08-01T05:01:15;15.90;99.90
51615;DHT22;37695;52.960;6.188;2023-08-01T05:03:40;15.90;99.90
51615;DHT22;37695;52.960;6.188;2023-08-01T05:06:06;15.90;99.90
51615;DHT22;37695;52.960;6.188;2023-08-01T05:08:33;15.90;99.90
51615;DHT22;37695;52.960;6.188;2023-08-01T05:10:58;15.90;99.90
51615;DHT22;37695;52.960;6.188;2023-08-01T05:13:24;15.80;99.90
51615;DHT22;37695;52.960;6.188;2023-08-01T05:15:50;15.80;99.90
51615;DHT22;37695;52.960;6.188;2023-08-01T05:18:16;15.80;99.90
51615;DHT22;37695;52.960;6.188;2023-08-01T05:20:42;15.80;99.90
51615;DHT22;37695;52.960;6.188;2023-08-01T05:23:08;15.80;99.90
51615;DHT22;37695;52.960;6.188;2023-08-01T05:25:34;15.70;99.90
51615;DHT22;37695;52.960;6.188;2023-08-01T05:28:00;15.80;99.90
51615;DHT22;37695;52.960;6.188;2023-08-01T05:30:25;15.80;99.90
51615;DHT22;37695;52.960;6.188;2023-08-01T05:32:51;15.90;99.90
51615;DHT22;37695;52.960;6.188;2023-08-01T05:35:17;16.00;99.90
51615;DHT22;37695;52.960;6.188;2023-08-01T05:37:43;16.10;99.90
51615;DHT22;37695;52.960;6.188;2023-08-01T05:40:09;16.10;99.90
51615;DHT22;37695;52.960;6.188;2023-08-01T05:42:35;16.20;99.90
51615;DHT22;37695;52.960;6.188;2023-08-01T05:45:00;16.20;99.90
51615;DHT22;37695;52.960;6.188;2023-08-01T05:47:26;16.30;99.90
51615;DHT22;37695;52.960;6.188;2023-08-01T05:49:51;16.20;99.90
51615;DHT22;37695;52.960;6.188;2023-08-01T05:52:17;16.20;99.90
51615;DHT22;37695;52.960;6.188;2023-08-01T05:54:42;16.30;99.90
51615;DHT22;37695;52.960;6.188;2023-08-01T05:57:08;16.20;99.90
51615;DHT22;37695;52.960;6.188;2023-08-01T05:59:34;16.30;99.90
51615;DHT22;37695;52.960;6.188;2023-08-01T06:02:00;16.30;99.90
51615;DHT22;37695;52.960;6.188;2023-08-01T06:04:25;16.30;99.90
51615;DHT22;37695;52.960;6.188;2023-08-01T06:06:51;16.30;99.90
51615;DHT22;37695;52.960;6.188;2023-08-01T06:09:16;16.30;99.90
51615;DHT22;37695;52.960;6.188;2023-08-01T06:11:42;17.10;99.90
51615;DHT22;37695;52.960;6.188;2023-08-01T06:14:09;16.30;99.90
51615;DHT22;37695;52.960;6.188;2023-08-01T06:16:34;16.30;99.90
51615;DHT22;37695;52.960;6.188;2023-08-01T06:19:00;16.30;99.90
51615;DHT22;37695;52.960;6.188;2023-08-01T06:21:26;16.30;99.90
51615;DHT22;37695;52.960;6.188;2023-08-01T06:23:51;16.20;99.90
51615;DHT22;37695;52.960;6.188;2023-08-01T06:26:17;16.20;99.90
51615;DHT22;37695;52.960;6.188;2023-08-01T06:28:42;16.20;99.90
51615;DHT22;37695;52.960;6.188;2023-08-01T06:31:08;16.20;99.90
51615;DHT22;37695;52.960;6.188;2023-08-01T06:33:34;16.30;99.90
51615;DHT22;37695;52.960;6.188;2023-08-01T06:35:59;16.30;99.90
51615;DHT22;37695;52.960;6.188;2023-08-01T06:38:25;16.30;99.90
51615;DHT22;37695;52.960;6.188;2023-08-01T06:40:50;16.40;99.90
51615;DHT22;37695;52.960;6.188;2023-08-01T06:43:16;16.40;99.90
51615;DHT22;37695;52.960;6.188;2023-08-01T06:45:41;16.50;99.90
51615;DHT22;37695;52.960;6.188;2023-08-01T06:48:07;16.50;99.90
51615;DHT22;37695;52.960;6.188;2023-08-01T06:50:33;16.50;99.90
51615;DHT22;37695;52.960;6.188;2023-08-01T06:52:59;16.50;99.90
51615;DHT22;37695;52.960;6.188;2023-08-01T06:55:26;16.60;99.90
51615;DHT22;37695;52.960;6.188;2023-08-01T06:57:51;16.70;99.90
51615;DHT22;37695;52.960;6.188;2023-08-01T07:00:17;16.80;99.90
51615;DHT22;37695;52.960;6.188;2023-08-01T07:02:43;16.80;99.90
51615;DHT22;37695;52.960;6.188;2023-08-01T07:05:08;16.80;99.90
51615;DHT22;37695;52.960;6.188;2023-08-01T07:07:34;16.70;99.90
51615;DHT22;37695;52.960;6.188;2023-08-01T07:10:00;16.70;99.90
51615;DHT22;37695;52.960;6.188;2023-08-01T07:12:25;16.60;99.90
51615;DHT22;37695;52.960;6.188;2023-08-01T07:14:51;16.50;99.90
51615;DHT22;37695;52.960;6.188;2023-08-01T07:17:16;16.50;99.90
51615;DHT22;37695;52.960;6.188;2023-08-01T07:19:42;16.50;99.90
51615;DHT22;37695;52.960;6.188;2023-08-01T07:22:08;16.40;99.90
51615;DHT22;37695;52.960;6.188;2023-08-01T07:24:33;16.30;99.90
51615;DHT22;37695;52.960;6.188;2023-08-01T07:26:59;16.40;99.90
51615;DHT22;37695;52.960;6.188;2023-08-01T07:29:24;16.40;99.90
51615;DHT22;37695;52.960;6.188;2023-08-01T07:31:50;16.40;99.90
51615;DHT22;37695;52.960;6.188;2023-08-01T07:34:15;16.50;99.90
51615;DHT22;37695;52.960;6.188;2023-08-01T07:36:41;16.50;99.90
51615;DHT22;37695;52.960;6.188;2023-08-01T07:39:07;16.60;99.90
51615;DHT22;37695;52.960;6.188;2023-08-01T07:41:32;16.60;99.90
51615;DHT22;37695;52.960;6.188;2023-08-01T07:44:01;16.60;99.90
51615;DHT22;37695;52.960;6.188;2023-08-01T07:46:27;16.50;99.90
51615;DHT22;37695;52.960;6.188;2023-08-01T07:48:53;16.50;99.90
51615;DHT22;37695;52.960;6.188;2023-08-01T07:51:19;16.50;99.90
51615;DHT22;37695;52.960;6.188;2023-08-01T07:53:45;16.40;99.90
51615;DHT22;37695;52.960;6.188;2023-08-01T07:56:10;16.40;99.90
51615;DHT22;37695;52.960;6.188;2023-08-01T07:58:36;16.30;99.90
51615;DHT22;37695;52.960;6.188;2023-08-01T08:01:05;16.20;99.90
51615;DHT22;37695;52.960;6.188;2023-08-01T08:03:31;16.20;99.90
51615;DHT22;37695;52.960;6.188;2023-08-01T08:05:57;16.10;99.90
51615;DHT22;37695;52.960;6.188;2023-08-01T08:08:23;16.00;99.90
51615;DHT22;37695;52.960;6.188;2023-08-01T08:10:49;16.00;99.90
51615;DHT22;37695;52.960;6.188;2023-08-01T08:13:14;15.90;99.90
51615;DHT22;37695;52.960;6.188;2023-08-01T08:15:40;15.90;99.90
51615;DHT22;37695;52.960;6.188;2023-08-01T08:18:06;15.90;99.90
51615;DHT22;37695;52.960;6.188;2023-08-01T08:20:33;16.00;99.90
51615;DHT22;37695;52.960;6.188;2023-08-01T08:23:05;16.00;99.90
51615;DHT22;37695;52.960;6.188;2023-08-01T08:25:30;15.90;99.90
51615;DHT22;37695;52.960;6.188;2023-08-01T08:27:56;15.90;99.90
51615;DHT22;37695;52.960;6.188;2023-08-01T08:30:21;15.90;99.90
51615;DHT22;37695;52.960;6.188;2023-08-01T08:32:47;15.90;99.90
51615;DHT22;37695;52.960;6.188;2023-08-01T08:35:13;16.00;99.90
51615;DHT22;37695;52.960;6.188;2023-08-01T08:37:38;15.90;99.90
51615;DHT22;37695;52.960;6.188;2023-08-01T08:40:04;15.90;99.90
51615;DHT22;37695;52.960;6.188;2023-08-01T08:42:33;15.90;99.90
51615;DHT22;37695;52.960;6.188;2023-08-01T08:45:01;16.00;99.90
51615;DHT22;37695;52.960;6.188;2023-08-01T08:47:28;16.00;99.90
51615;DHT22;37695;52.960;6.188;2023-08-01T08:49:55;16.00;99.90
51615;DHT22;37695;52.960;6.188;2023-08-01T08:52:23;16.10;99.90
51615;DHT22;37695;52.960;6.188;2023-08-01T08:54:50;16.10;99.90
51615;DHT22;37695;52.960;6.188;2023-08-01T08:57:16;16.10;99.90
51615;DHT22;37695;52.960;6.188;2023-08-01T08:59:43;16.10;99.90
51615;DHT22;37695;52.960;6.188;2023-08-01T09:02:09;16.10;99.90
51615;DHT22;37695;52.960;6.188;2023-08-01T09:04:34;16.00;99.90
51615;DHT22;37695;52.960;6.188;2023-08-01T09:07:02;16.00;99.90
51615;DHT22;37695;52.960;6.188;2023-08-01T09:09:31;16.00;99.90
51615;DHT22;37695;52.960;6.188;2023-08-01T09:11:58;16.00;99.90
51615;DHT22;37695;52.960;6.188;2023-08-01T09:14:24;16.00;99.90
51615;DHT22;37695;52.960;6.188;2023-08-01T09:16:50;16.20;99.90
51615;DHT22;37695;52.960;6.188;2023-08-01T09:19:20;16.20;99.90
51615;DHT22;37695;52.960;6.188;2023-08-01T09:21:46;16.30;99.90
51615;DHT22;37695;52.960;6.188;2023-08-01T09:24:20;16.40;99.90
51615;DHT22;37695;52.960;6.188;2023-08-01T09:26:47;16.40;99.90
51615;DHT22;37695;52.960;6.188;2023-08-01T09:29:16;16.40;99.90
51615;DHT22;37695;52.960;6.188;2023-08-01T09:31:42;16.40;99.90
51615;DHT22;37695;52.960;6.188;2023-08-01T09:34:22;16.40;99.90
51615;DHT22;37695;52.960;6.188;2023-08-01T09:36:49;16.50;99.90
51615;DHT22;37695;52.960;6.188;2023-08-01T09:39:19;16.50;99.90
51615;DHT22;37695;52.960;6.188;2023-08-01T09:41:46;16.50;99.90
51615;DHT22;37695;52.960;6.188;2023-08-01T09:44:16;16.50;99.90
51615;DHT22;37695;52.960;6.188;2023-08-01T09:46:42;16.40;99.90
51615;DHT22;37695;52.960;6.188;2023-08-01T09:49:10;16.40;99.90
51615;DHT22;37695;52.960;6.188;2023-08-01T09:51:49;16.30;99.90
51615;DHT22;37695;52.960;6.188;2023-08-01T09:54:16;16.30;99.90
51615;DHT22;37695;52.960;6.188;2023-08-01T09:56:44;16.30;99.90
51615;DHT22;37695;52.960;6.188;2023-08-01T09:59:10;16.30;99.90
51615;DHT22;37695;52.960;6.188;2023-08-01T10:01:38;16.20;99.90
51615;DHT22;37695;52.960;6.188;2023-08-01T10:04:07;16.40;99.90
51615;DHT22;37695;52.960;6.188;2023-08-01T10:06:34;16.60;99.90
51615;DHT22;37695;52.960;6.188;2023-08-01T10:09:02;16.80;99.90
51615;DHT22;37695;52.960;6.188;2023-08-01T10:11:30;16.80;99.90
51615;DHT22;37695;52.960;6.188;2023-08-01T10:13:59;16.80;99.90
51615;DHT22;37695;52.960;6.188;2023-08-01T10:16:26;16.70;99.90
51615;DHT22;37695;52.960;6.188;2023-08-01T10:18:52;16.70;99.90
51615;DHT22;37695;52.960;6.188;2023-08-01T10:21:19;16.70;99.90
51615;DHT22;37695;52.960;6.188;2023-08-01T10:23:46;17.10;99.90
51615;DHT22;37695;52.960;6.188;2023-08-01T10:26:13;17.30;99.90
51615;DHT22;37695;52.960;6.188;2023-08-01T10:28:50;17.60;99.90
51615;DHT22;37695;52.960;6.188;2023-08-01T10:31:17;18.00;99.90
51615;DHT22;37695;52.960;6.188;2023-08-01T10:33:45;18.20;99.90
51615;DHT22;37695;52.960;6.188;2023-08-01T10:36:18;18.30;99.90
51615;DHT22;37695;52.960;6.188;2023-08-01T10:38:54;18.40;99.90
51615;DHT22;37695;52.960;6.188;2023-08-01T10:41:21;18.50;99.90
51615;DHT22;37695;52.960;6.188;2023-08-01T10:43:47;18.70;99.90
51615;DHT22;37695;52.960;6.188;2023-08-01T10:46:12;18.80;99.90
51615;DHT22;37695;52.960;6.188;2023-08-01T10:48:51;18.80;99.90
51615;DHT22;37695;52.960;6.188;2023-08-01T10:51:17;18.70;99.90
51615;DHT22;37695;52.960;6.188;2023-08-01T10:53:43;18.70;99.90
51615;DHT22;37695;52.960;6.188;2023-08-01T10:56:16;18.70;99.90
51615;DHT22;37695;52.960;6.188;2023-08-01T10:58:42;18.70;99.90
51615;DHT22;37695;52.960;6.188;2023-08-01T11:01:08;18.60;99.90
51615;DHT22;37695;52.960;6.188;2023-08-01T11:03:38;18.60;99.90
51615;DHT22;37695;52.960;6.188;2023-08-01T11:06:04;18.60;99.90
51615;DHT22;37695;52.960;6.188;2023-08-01T11:08:37;18.50;99.90
51615;DHT22;37695;52.960;6.188;2023-08-01T11:11:04;18.60;99.90
51615;DHT22;37695;52.960;6.188;2023-08-01T11:13:30;18.50;99.90
51615;DHT22;37695;52.960;6.188;2023-08-01T11:15:57;18.50;99.90
51615;DHT22;37695;52.960;6.188;2023-08-01T11:18:22;18.40;99.90
51615;DHT22;37695;52.960;6.188;2023-08-01T11:20:48;18.40;99.90
51615;DHT22;37695;52.960;6.188;2023-08-01T11:23:13;18.50;99.90
51615;DHT22;37695;52.960;6.188;2023-08-01T11:25:41;18.50;99.90
51615;DHT22;37695;52.960;6.188;2023-08-01T11:28:14;18.50;99.90
51615;DHT22;37695;52.960;6.188;2023-08-01T11:30:40;18.50;99.90
51615;DHT22;37695;52.960;6.188;2023-08-01T11:33:20;18.30;99.90
51615;DHT22;37695;52.960;6.188;2023-08-01T11:35:56;18.30;99.90
51615;DHT22;37695;52.960;6.188;2023-08-01T11:38:29;18.30;99.90
51615;DHT22;37695;52.960;6.188;2023-08-01T11:41:00;18.40;99.90
51615;DHT22;37695;52.960;6.188;2023-08-01T11:43:26;18.50;99.90
51615;DHT22;37695;52.960;6.188;2023-08-01T11:45:56;18.60;99.90
51615;DHT22;37695;52.960;6.188;2023-08-01T11:48:24;18.80;99.90
51615;DHT22;37695;52.960;6.188;2023-08-01T11:50:57;18.80;99.90
51615;DHT22;37695;52.960;6.188;2023-08-01T11:53:23;18.90;99.90
51615;DHT22;37695;52.960;6.188;2023-08-01T11:55:50;18.90;99.90
51615;DHT22;37695;52.960;6.188;2023-08-01T11:58:30;19.00;99.90
51615;DHT22;37695;52.960;6.188;2023-08-01T12:01:07;19.10;99.90
51615;DHT22;37695;52.960;6.188;2023-08-01T12:03:44;19.20;99.90
51615;DHT22;37695;52.960;6.188;2023-08-01T12:06:10;19.40;99.90
51615;DHT22;37695;52.960;6.188;2023-08-01T12:08:37;19.30;99.90
51615;DHT22;37695;52.960;6.188;2023-08-01T12:11:03;19.20;99.90
51615;DHT22;37695;52.960;6.188;2023-08-01T12:13:29;19.20;99.90
51615;DHT22;37695;52.960;6.188;2023-08-01T12:15:56;19.10;99.90
51615;DHT22;37695;52.960;6.188;2023-08-01T12:18:26;19.10;99.90
51615;DHT22;37695;52.960;6.188;2023-08-01T12:20:52;19.10;99.90
51615;DHT22;37695;52.960;6.188;2023-08-01T12:23:18;19.10;99.90
51615;DHT22;37695;52.960;6.188;2023-08-01T12:25:44;19.00;99.90
51615;DHT22;37695;52.960;6.188;2023-08-01T12:28:11;18.80;99.90
51615;DHT22;37695;52.960;6.188;2023-08-01T12:30:39;18.80;99.90
51615;DHT22;37695;52.960;6.188;2023-08-01T12:33:07;19.00;99.90
51615;DHT22;37695;52.960;6.188;2023-08-01T12:35:33;18.90;99.90
51615;DHT22;37695;52.960;6.188;2023-08-01T12:37:59;19.40;99.90
51615;DHT22;37695;52.960;6.188;2023-08-01T12:40:24;19.20;99.90
51615;DHT22;37695;52.960;6.188;2023-08-01T12:42:50;19.50;99.90
51615;DHT22;37695;52.960;6.188;2023-08-01T12:45:15;19.70;99.90
51615;DHT22;37695;52.960;6.188;2023-08-01T12:47:41;19.90;99.90
51615;DHT22;37695;52.960;6.188;2023-08-01T12:50:07;20.10;99.90
51615;DHT22;37695;52.960;6.188;2023-08-01T12:52:33;20.10;99.90
51615;DHT22;37695;52.960;6.188;2023-08-01T12:54:59;20.30;99.90
51615;DHT22;37695;52.960;6.188;2023-08-01T12:57:25;20.20;99.90
51615;DHT22;37695;52.960;6.188;2023-08-01T12:59:50;20.00;99.90
51615;DHT22;37695;52.960;6.188;2023-08-01T13:02:16;19.90;99.90
51615;DHT22;37695;52.960;6.188;2023-08-01T13:04:41;19.80;99.90
51615;DHT22;37695;52.960;6.188;2023-08-01T13:07:07;20.00;99.90
51615;DHT22;37695;52.960;6.188;2023-08-01T13:09:33;20.10;99.90
51615;DHT22;37695;52.960;6.188;2023-08-01T13:11:59;19.90;99.90
51615;DHT22;37695;52.960;6.188;2023-08-01T13:14:25;19.80;99.90
51615;DHT22;37695;52.960;6.188;2023-08-01T13:16:51;19.70;99.90
51615;DHT22;37695;52.960;6.188;2023-08-01T13:19:17;19.60;99.90
51615;DHT22;37695;52.960;6.188;2023-08-01T13:21:43;19.60;99.90
51615;DHT22;37695;52.960;6.188;2023-08-01T13:24:09;19.60;99.90
51615;DHT22;37695;52.960;6.188;2023-08-01T13:26:34;19.60;99.90
51615;DHT22;37695;52.960;6.188;2023-08-01T13:29:01;19.40;99.90
51615;DHT22;37695;52.960;6.188;2023-08-01T13:31:27;19.00;99.90
51615;DHT22;37695;52.960;6.188;2023-08-01T13:33:53;18.40;99.90
51615;DHT22;37695;52.960;6.188;2023-08-01T13:36:19;18.00;99.90
51615;DHT22;37695;52.960;6.188;2023-08-01T13:38:44;17.90;99.90
51615;DHT22;37695;52.960;6.188;2023-08-01T13:41:10;17.80;99.90
51615;DHT22;37695;52.960;6.188;2023-08-01T13:43:36;17.70;99.90
51615;DHT22;37695;52.960;6.188;2023-08-01T13:46:15;17.70;99.90
51615;DHT22;37695;52.960;6.188;2023-08-01T13:48:41;17.80;99.90
51615;DHT22;37695;52.960;6.188;2023-08-01T13:51:07;17.80;99.90
51615;DHT22;37695;52.960;6.188;2023-08-01T13:53:32;18.00;99.90
51615;DHT22;37695;52.960;6.188;2023-08-01T13:55:59;18.10;99.90
51615;DHT22;37695;52.960;6.188;2023-08-01T13:58:24;18.20;99.90
51615;DHT22;37695;52.960;6.188;2023-08-01T14:00:50;18.30;99.90
51615;DHT22;37695;52.960;6.188;2023-08-01T14:03:16;18.40;99.90
51615;DHT22;37695;52.960;6.188;2023-08-01T14:05:41;18.40;99.90
51615;DHT22;37695;52.960;6.188;2023-08-01T14:08:07;18.50;99.90
51615;DHT22;37695;52.960;6.188;2023-08-01T14:10:32;18.50;99.90
51615;DHT22;37695;52.960;6.188;2023-08-01T14:12:58;18.70;99.90
51615;DHT22;37695;52.960;6.188;2023-08-01T14:15:23;18.70;99.90
51615;DHT22;37695;52.960;6.188;2023-08-01T14:17:49;18.70;99.90
51615;DHT22;37695;52.960;6.188;2023-08-01T14:20:15;18.90;99.90
51615;DHT22;37695;52.960;6.188;2023-08-01T14:22:41;19.10;99.90
51615;DHT22;37695;52.960;6.188;2023-08-01T14:25:08;19.10;99.90
51615;DHT22;37695;52.960;6.188;2023-08-01T14:27:34;19.10;99.90
51615;DHT22;37695;52.960;6.188;2023-08-01T14:30:00;19.20;99.90
51615;DHT22;37695;52.960;6.188;2023-08-01T14:32:27;19.20;99.90
51615;DHT22;37695;52.960;6.188;2023-08-01T14:34:53;19.20;99.90
51615;DHT22;37695;52.960;6.188;2023-08-01T14:37:18;19.10;99.90
51615;DHT22;37695;52.960;6.188;2023-08-01T14:39:44;19.10;99.90
51615;DHT22;37695;52.960;6.188;2023-08-01T14:42:09;19.10;99.90
51615;DHT22;37695;52.960;6.188;2023-08-01T14:44:35;19.20;99.90
51615;DHT22;37695;52.960;6.188;2023-08-01T14:47:01;19.20;99.90
51615;DHT22;37695;52.960;6.188;2023-08-01T14:49:26;19.30;99.90
51615;DHT22;37695;52.960;6.188;2023-08-01T14:51:54;19.30;99.90
51615;DHT22;37695;52.960;6.188;2023-08-01T14:54:20;19.20;99.90
51615;DHT22;37695;52.960;6.188;2023-08-01T14:56:46;19.10;99.90
51615;DHT22;37695;52.960;6.188;2023-08-01T14:59:11;18.90;99.90
51615;DHT22;37695;52.960;6.188;2023-08-01T15:01:37;18.80;99.90
51615;DHT22;37695;52.960;6.188;2023-08-01T15:04:03;18.80;99.90
51615;DHT22;37695;52.960;6.188;2023-08-01T15:06:29;18.80;99.90
51615;DHT22;37695;52.960;6.188;2023-08-01T15:08:54;18.90;99.90
51615;DHT22;37695;52.960;6.188;2023-08-01T15:11:20;19.20;99.90
51615;DHT22;37695;52.960;6.188;2023-08-01T15:13:46;19.40;99.90
51615;DHT22;37695;52.960;6.188;2023-08-01T15:16:12;19.60;99.90
51615;DHT22;37695;52.960;6.188;2023-08-01T15:18:37;19.40;99.90
51615;DHT22;37695;52.960;6.188;2023-08-01T15:21:03;19.30;99.90
51615;DHT22;37695;52.960;6.188;2023-08-01T15:23:28;19.20;99.90
51615;DHT22;37695;52.960;6.188;2023-08-01T15:25:58;19.10;99.90